createdAt,value
2018-09-04T00:01:01.263Z,74.4
2018-09-04T00:02:11.387Z,74.3
2018-09-04T00:03:21.305Z,74.55
2018-09-04T00:04:31.434Z,74.68
2018-09-04T00:05:41.613Z,74.74
2018-09-04T00:06:52.715Z,75.03
2018-09-04T00:08:03.116Z,74.55
2018-09-04T00:09:13.257Z,74.74
2018-09-04T00:10:24.147Z,74.93
2018-09-04T00:11:34.102Z,74.93
2018-09-04T00:12:44.420Z,75.42
2018-09-04T00:13:54.672Z,75.32
2018-09-04T00:15:04.797Z,75.42
2018-09-04T00:16:15.182Z,75.23
2018-09-04T00:17:25.293Z,75.23
2018-09-04T00:18:35.430Z,75.13
2018-09-04T00:19:45.649Z,75.42
2018-09-04T00:20:55.881Z,75.23
2018-09-04T00:22:06.136Z,75.8
2018-09-04T00:23:16.312Z,75.71
2018-09-04T00:24:26.641Z,75.8
2018-09-04T00:25:36.752Z,75.61
2018-09-04T00:26:47.139Z,75.8
2018-09-04T00:27:57.347Z,75.61
2018-09-04T00:29:07.254Z,75.71
2018-09-04T00:30:17.525Z,75.9
2018-09-04T00:31:27.933Z,76.18
2018-09-04T00:32:38.168Z,75.99
2018-09-04T00:33:48.348Z,76.18
2018-09-04T00:34:58.511Z,76.48
2018-09-04T00:36:08.756Z,76.96
2018-09-04T00:37:18.922Z,76.67
2018-09-04T00:38:29.072Z,76.57
2018-09-04T00:39:39.376Z,76.57
2018-09-04T00:40:49.522Z,76.86
2018-09-04T00:41:59.770Z,76.76
2018-09-04T00:43:10.009Z,76.76
2018-09-04T00:44:19.878Z,77.15
2018-09-04T00:45:30.001Z,77.06
2018-09-04T00:46:40.185Z,77.15
2018-09-04T00:47:50.074Z,77.44
2018-09-04T00:49:00.259Z,77.63
2018-09-04T00:50:10.432Z,77.73
2018-09-04T00:51:21.657Z,77.4
2018-09-04T00:52:32.851Z,77.78
2018-09-04T00:53:42.726Z,77.4
2018-09-04T00:54:52.652Z,77.69
2018-09-04T00:56:02.782Z,77.69
2018-09-04T00:57:12.964Z,77.59
2018-09-04T00:58:23.097Z,77.69
2018-09-04T00:59:34.196Z,77.88
2018-09-04T01:00:44.355Z,78.17
2018-09-04T01:01:54.578Z,78.08
2018-09-04T01:03:04.739Z,77.88
2018-09-04T01:04:14.519Z,78.08
2018-09-04T01:05:24.650Z,78.56
2018-09-04T01:06:34.770Z,78.56
2018-09-04T01:07:44.923Z,78.56
2018-09-04T01:08:55.042Z,78.56
2018-09-04T01:10:05.205Z,78.46
2018-09-04T01:11:15.339Z,78.46
2018-09-04T01:12:25.274Z,78.36
2018-09-04T01:13:35.617Z,78.9
2018-09-04T01:14:45.586Z,79.13
2018-09-04T01:15:55.767Z,78.94
2018-09-04T01:17:05.934Z,79.03
2018-09-04T01:18:16.135Z,79.03
2018-09-04T01:19:26.290Z,79.1
2018-09-04T01:20:36.426Z,79
2018-09-04T01:21:46.553Z,79.58
2018-09-04T01:22:56.323Z,79.58
2018-09-04T01:24:07.423Z,79.67
2018-09-04T01:25:17.572Z,79.38
2018-09-04T01:26:27.762Z,79.58
2018-09-04T01:27:37.902Z,79.48
2018-09-04T01:28:48.242Z,79.48
2018-09-04T01:29:58.364Z,79.86
2018-09-04T01:31:08.491Z,79.96
2018-09-04T01:32:18.615Z,79.96
2018-09-04T01:33:28.635Z,79.96
2018-09-04T01:34:38.268Z,80.35
2018-09-04T01:35:48.437Z,80.25
2018-09-04T01:36:58.311Z,81.02
2018-09-04T01:38:08.464Z,80.54
2018-09-04T01:39:18.563Z,80.44
2018-09-04T01:40:28.704Z,80.83
2018-09-04T01:41:38.559Z,80.63
2018-09-04T01:42:48.670Z,80.54
2018-09-04T01:43:58.446Z,81.02
2018-09-04T01:45:08.841Z,81.21
2018-09-04T01:46:18.965Z,80.92
2018-09-04T01:47:28.614Z,81.02
2018-09-04T01:48:38.724Z,81.4
2018-09-04T01:49:48.600Z,81.4
2018-09-04T01:50:58.729Z,81.27
2018-09-04T01:52:08.852Z,81.4
2018-09-04T01:53:19.027Z,81.17
2018-09-04T01:54:29.189Z,81.46
2018-09-04T01:55:39.318Z,81.46
2018-09-04T01:56:49.539Z,81.27
2018-09-04T01:57:59.657Z,81.37
2018-09-04T01:59:09.811Z,81.17
2018-09-04T02:00:19.671Z,81.07
2018-09-04T02:01:30.107Z,81.94
2018-09-04T02:02:40.445Z,81.56
2018-09-04T02:03:50.593Z,81.65
2018-09-04T02:05:00.468Z,81.84
2018-09-04T02:06:10.805Z,82.04
2018-09-04T02:07:20.918Z,81.84
2018-09-04T02:08:31.838Z,81.84
2018-09-04T02:09:42.107Z,82.23
2018-09-04T02:10:52.262Z,82.32
2018-09-04T02:12:02.449Z,82.52
2018-09-04T02:13:12.353Z,82.04
2018-09-04T02:14:23.468Z,82.52
2018-09-04T02:15:33.640Z,82.52
2018-09-04T02:16:43.838Z,82.52
2018-09-04T02:17:54.057Z,82.23
2018-09-04T02:19:04.181Z,82.52
2018-09-04T02:20:14.325Z,82.52
2018-09-04T02:21:24.466Z,82.32
2018-09-04T02:22:34.584Z,82.52
2018-09-04T02:23:44.914Z,82.61
2018-09-04T02:24:54.544Z,83
2018-09-04T02:26:04.827Z,83.09
2018-09-04T02:27:15.002Z,82.71
2018-09-04T02:28:25.153Z,83.19
2018-09-04T02:29:35.417Z,83.09
2018-09-04T02:30:45.545Z,83.19
2018-09-04T02:31:55.740Z,83.09
2018-09-04T02:33:06.149Z,82.96
2018-09-04T02:34:16.707Z,83.06
2018-09-04T02:35:26.961Z,83.06
2018-09-04T02:36:37.188Z,83.06
2018-09-04T02:37:47.063Z,82.86
2018-09-04T02:38:56.999Z,82.76
2018-09-04T02:40:07.332Z,82.96
2018-09-04T02:41:17.531Z,83.25
2018-09-04T02:42:27.751Z,83.53
2018-09-04T02:43:37.920Z,83.34
2018-09-04T02:44:48.361Z,83.83
2018-09-04T02:45:58.620Z,83.83
2018-09-04T02:47:08.536Z,83.83
2018-09-04T02:48:18.683Z,83.73
2018-09-04T02:49:28.794Z,84.11
2018-09-04T02:50:38.981Z,83.73
2018-09-04T02:51:50.127Z,83.63
2018-09-04T02:53:00.351Z,83.73
2018-09-04T02:54:10.491Z,83.83
2018-09-04T02:55:20.617Z,83.92
2018-09-04T02:56:31.718Z,84.01
2018-09-04T02:57:41.844Z,83.92
2018-09-04T02:58:51.699Z,83.92
2018-09-04T03:00:01.840Z,84.01
2018-09-04T03:01:12.160Z,84.11
2018-09-04T03:02:22.282Z,83.92
2018-09-04T03:03:32.430Z,84.11
2018-09-04T03:04:42.583Z,84.4
2018-09-04T03:05:52.203Z,84.3
2018-09-04T03:07:02.381Z,84.59
2018-09-04T03:08:12.536Z,84.3
2018-09-04T03:09:22.659Z,84.5
2018-09-04T03:10:32.826Z,84.45
2018-09-04T03:11:42.945Z,84.64
2018-09-04T03:12:53.216Z,84.59
2018-09-04T03:14:03.178Z,84.36
2018-09-04T03:15:13.103Z,84.64
2018-09-04T03:16:23.314Z,84.45
2018-09-04T03:17:33.444Z,84.64
2018-09-04T03:18:43.692Z,84.69
2018-09-04T03:19:53.830Z,84.64
2018-09-04T03:21:04.219Z,84.45
2018-09-04T03:22:14.085Z,85.13
2018-09-04T03:23:24.205Z,85.13
2018-09-04T03:24:34.360Z,85.13
2018-09-04T03:25:44.521Z,85.03
2018-09-04T03:26:54.439Z,85.13
2018-09-04T03:28:04.572Z,84.94
2018-09-04T03:29:14.801Z,84.94
2018-09-04T03:30:25.015Z,84.84
2018-09-04T03:31:35.217Z,84.94
2018-09-04T03:32:45.104Z,84.94
2018-09-04T03:33:55.225Z,84.74
2018-09-04T03:35:05.594Z,85.03
2018-09-04T03:36:15.771Z,84.84
2018-09-04T03:37:25.886Z,85.22
2018-09-04T03:38:36.031Z,85.13
2018-09-04T03:39:45.801Z,85.32
2018-09-04T03:40:55.958Z,85.03
2018-09-04T03:42:06.326Z,85.22
2018-09-04T03:43:16.620Z,84.94
2018-09-04T03:44:26.970Z,85.03
2018-09-04T03:45:37.744Z,85.41
2018-09-04T03:46:47.961Z,85.13
2018-09-04T03:47:58.097Z,85.03
2018-09-04T03:49:08.973Z,85.22
2018-09-04T03:50:19.131Z,85.41
2018-09-04T03:51:29.255Z,85.22
2018-09-04T03:52:39.277Z,85.13
2018-09-04T03:53:49.462Z,85.32
2018-09-04T03:54:59.620Z,85.41
2018-09-04T03:56:10.033Z,85.51
2018-09-04T03:57:20.155Z,85.41
2018-09-04T03:58:30.525Z,85.41
2018-09-04T03:59:40.654Z,85.57
2018-09-04T04:00:51.406Z,85.71
2018-09-04T04:02:01.541Z,85.8
2018-09-04T04:03:11.775Z,85.8
2018-09-04T04:04:22.144Z,85.8
2018-09-04T04:05:32.261Z,85.89
2018-09-04T04:06:42.393Z,85.8
2018-09-04T04:07:52.535Z,85.71
2018-09-04T04:09:02.661Z,85.71
2018-09-04T04:10:12.777Z,85.89
2018-09-04T04:11:22.927Z,85.85
2018-09-04T04:12:33.073Z,86.05
2018-09-04T04:13:42.957Z,85.95
2018-09-04T04:14:53.088Z,85.85
2018-09-04T04:16:03.207Z,86.14
2018-09-04T04:17:13.348Z,86.33
2018-09-04T04:18:23.498Z,86.38
2018-09-04T04:19:33.721Z,86.05
2018-09-04T04:20:44.092Z,86.24
2018-09-04T04:21:54.221Z,86.43
2018-09-04T04:23:04.470Z,86.05
2018-09-04T04:24:14.003Z,86.14
2018-09-04T04:25:23.945Z,86.72
2018-09-04T04:26:34.204Z,86.91
2018-09-04T04:27:44.571Z,86.81
2018-09-04T04:28:54.692Z,86.72
2018-09-04T04:30:04.869Z,86.81
2018-09-04T04:31:15.033Z,86.62
2018-09-04T04:32:25.194Z,86.91
2018-09-04T04:33:35.327Z,86.81
2018-09-04T04:34:45.716Z,86.72
2018-09-04T04:35:55.938Z,86.91
2018-09-04T04:37:06.193Z,86.52
2018-09-04T04:38:16.054Z,87.01
2018-09-04T04:39:26.173Z,86.91
2018-09-04T04:40:36.327Z,86.91
2018-09-04T04:41:46.573Z,86.72
2018-09-04T04:42:56.808Z,86.91
2018-09-04T04:44:06.321Z,86.91
2018-09-04T04:45:16.199Z,87.29
2018-09-04T04:46:26.356Z,87.19
2018-09-04T04:47:36.503Z,86.62
2018-09-04T04:48:46.538Z,87.1
2018-09-04T04:49:56.864Z,87.01
2018-09-04T04:51:06.654Z,86.81
2018-09-04T04:52:16.793Z,87.01
2018-09-04T04:53:27.143Z,87.01
2018-09-04T04:54:37.521Z,87.29
2018-09-04T04:55:47.469Z,87.19
2018-09-04T04:56:57.592Z,87.77
2018-09-04T04:58:07.469Z,87.25
2018-09-04T04:59:17.448Z,87.25
2018-09-04T05:00:27.772Z,87.39
2018-09-04T05:01:38.852Z,87.39
2018-09-04T05:02:48.990Z,87.63
2018-09-04T05:03:59.374Z,87.54
2018-09-04T05:05:09.693Z,87.35
2018-09-04T05:06:19.908Z,87.54
2018-09-04T05:07:30.099Z,87.35
2018-09-04T05:08:39.869Z,87.44
2018-09-04T05:09:50.004Z,87.35
2018-09-04T05:11:00.484Z,87.25
2018-09-04T05:12:11.277Z,87.58
2018-09-04T05:13:21.456Z,87.15
2018-09-04T05:14:31.362Z,87.63
2018-09-04T05:15:41.538Z,87.68
2018-09-04T05:16:51.808Z,87.25
2018-09-04T05:18:01.996Z,87.35
2018-09-04T05:19:12.212Z,87.25
2018-09-04T05:20:22.433Z,87.73
2018-09-04T05:21:32.582Z,88.11
2018-09-04T05:22:42.963Z,87.44
2018-09-04T05:23:53.306Z,88.02
2018-09-04T05:25:03.483Z,88.11
2018-09-04T05:26:13.620Z,87.54
2018-09-04T05:27:23.814Z,88.11
2018-09-04T05:28:34.038Z,87.82
2018-09-04T05:29:44.275Z,87.35
2018-09-04T05:30:54.075Z,87.39
2018-09-04T05:32:04.206Z,88.06
2018-09-04T05:33:14.346Z,87.49
2018-09-04T05:34:24.500Z,88.06
2018-09-04T05:35:34.645Z,87.68
2018-09-04T05:36:44.937Z,87.68
2018-09-04T05:37:55.197Z,87.39
2018-09-04T05:39:05.325Z,87.58
2018-09-04T05:40:15.430Z,87.77
2018-09-04T05:41:25.585Z,87.39
2018-09-04T05:42:35.715Z,87.58
2018-09-04T05:43:45.924Z,87.19
2018-09-04T05:44:55.744Z,87.49
2018-09-04T05:46:05.909Z,87.58
2018-09-04T05:47:16.167Z,87.29
2018-09-04T05:48:26.292Z,87.58
2018-09-04T05:49:36.560Z,87.39
2018-09-04T05:50:46.699Z,87.29
2018-09-04T05:51:57.055Z,87.58
2018-09-04T05:53:07.247Z,87.77
2018-09-04T05:54:17.500Z,87.49
2018-09-04T05:55:27.544Z,87.1
2018-09-04T05:56:37.754Z,86.76
2018-09-04T05:57:47.798Z,87.05
2018-09-04T05:58:57.919Z,86.95
2018-09-04T06:00:08.071Z,86.66
2018-09-04T06:01:18.227Z,86.47
2018-09-04T06:02:28.137Z,86.85
2018-09-04T06:03:38.291Z,86.95
2018-09-04T06:04:48.424Z,86.95
2018-09-04T06:05:58.622Z,86.76
2018-09-04T06:07:08.513Z,86.76
2018-09-04T06:08:18.703Z,86.76
2018-09-04T06:09:28.828Z,86.66
2018-09-04T06:10:38.714Z,86.47
2018-09-04T06:11:48.925Z,86.57
2018-09-04T06:12:59.059Z,86.76
2018-09-04T06:14:09.402Z,85.94
2018-09-04T06:15:19.532Z,86.13
2018-09-04T06:16:29.762Z,85.84
2018-09-04T06:17:39.643Z,86.13
2018-09-04T06:18:49.776Z,86.04
2018-09-04T06:20:00.054Z,85.65
2018-09-04T06:21:10.100Z,85.17
2018-09-04T06:22:20.288Z,84.98
2018-09-04T06:23:30.587Z,85.21
2018-09-04T06:24:40.717Z,84.83
2018-09-04T06:25:51.845Z,85.21
2018-09-04T06:27:02.065Z,84.77
2018-09-04T06:28:11.943Z,84.48
2018-09-04T06:29:22.150Z,83.81
2018-09-04T06:30:32.299Z,83.52
2018-09-04T06:31:42.270Z,83.52
2018-09-04T06:32:52.292Z,83.72
2018-09-04T06:34:02.849Z,83.42
2018-09-04T06:35:13.389Z,83.14
2018-09-04T06:36:23.679Z,83.04
2018-09-04T06:37:34.215Z,82.85
2018-09-04T06:38:44.373Z,82.79
2018-09-04T06:39:54.572Z,82.6
2018-09-04T06:41:04.813Z,82.5
2018-09-04T06:42:15.068Z,81.93
2018-09-04T06:43:25.228Z,82.12
2018-09-04T06:44:35.352Z,81.63
2018-09-04T06:45:45.509Z,81.73
2018-09-04T06:46:55.642Z,81.63
2018-09-04T06:48:05.533Z,81.16
2018-09-04T06:49:15.892Z,81.1
2018-09-04T06:50:25.827Z,81.48
2018-09-04T06:51:35.953Z,81.01
2018-09-04T06:52:46.276Z,80.71
2018-09-04T06:53:56.111Z,80.71
2018-09-04T06:55:06.230Z,80.52
2018-09-04T06:56:16.568Z,80.33
2018-09-04T06:57:26.700Z,80.04
2018-09-04T06:58:37.540Z,80.14
2018-09-04T06:59:47.872Z,80.33
2018-09-04T07:00:58.155Z,80.43
2018-09-04T07:02:08.409Z,79.85
2018-09-04T07:03:18.545Z,79.27
2018-09-04T07:04:28.781Z,79.36
2018-09-04T07:05:39.108Z,79.08
2018-09-04T07:06:48.770Z,79.27
2018-09-04T07:07:58.938Z,79.41
2018-09-04T07:09:09.024Z,78.73
2018-09-04T07:10:18.814Z,78.73
2018-09-04T07:11:28.964Z,78.63
2018-09-04T07:12:39.122Z,77.76
2018-09-04T07:13:49.255Z,77.67
2018-09-04T07:14:59.540Z,77.48
2018-09-04T07:16:10.028Z,77.67
2018-09-04T07:17:19.900Z,78.15
2018-09-04T07:18:29.713Z,77.76
2018-09-04T07:19:39.869Z,77.19
2018-09-04T07:20:50.129Z,77.58
2018-09-04T07:22:00.278Z,77.23
2018-09-04T07:23:10.146Z,76.9
2018-09-04T07:24:20.591Z,76.55
2018-09-04T07:25:30.747Z,76.26
2018-09-04T07:26:40.917Z,76.36
2018-09-04T07:27:51.125Z,76.26
2018-09-04T07:29:01.302Z,76.26
2018-09-04T07:30:11.757Z,75.92
2018-09-04T07:31:22.004Z,75.72
2018-09-04T07:32:32.146Z,75.14
2018-09-04T07:33:42.399Z,74.57
2018-09-04T07:34:52.378Z,74.85
2018-09-04T07:36:02.555Z,74.51
2018-09-04T07:37:12.500Z,74.51
2018-09-04T07:38:22.772Z,74.21
2018-09-04T07:39:33.155Z,74.02
2018-09-04T07:40:43.315Z,73.54
2018-09-04T07:41:53.567Z,73.25
2018-09-04T07:43:04.076Z,73.67
2018-09-04T07:44:14.099Z,72.03
2018-09-04T07:45:24.469Z,72.8
2018-09-04T07:46:34.618Z,72.71
2018-09-04T07:47:44.762Z,72.32
2018-09-04T07:48:54.397Z,72.32
2018-09-04T07:50:05.604Z,71.68
2018-09-04T07:51:15.820Z,71.2
2018-09-04T07:52:26.048Z,70.62
2018-09-04T07:53:36.272Z,70.62
2018-09-04T07:54:46.636Z,70.42
2018-09-04T07:55:56.427Z,70.36
2018-09-04T07:57:06.305Z,69.68
2018-09-04T07:58:16.524Z,68.66
2018-09-04T07:59:26.702Z,67.76
2018-09-04T08:00:37.095Z,66.56
2018-09-04T08:01:47.262Z,64.65
2018-09-04T08:02:57.139Z,63.29
2018-09-04T08:04:07.322Z,62.81
2018-09-04T08:05:17.528Z,61.38
2018-09-04T08:06:27.682Z,59.57
2018-09-04T08:07:37.839Z,59.69
2018-09-04T08:08:47.779Z,57.87
2018-09-04T08:09:58.018Z,57.2
2018-09-04T08:11:08.011Z,56.35
2018-09-04T08:12:17.929Z,57.32
2018-09-04T08:13:28.142Z,56.25
2018-09-04T08:14:38.269Z,55.6
2018-09-04T08:15:48.435Z,55.43
2018-09-04T08:16:58.347Z,54.28
2018-09-04T08:18:08.489Z,53.21
2018-09-04T08:19:18.667Z,52.07
2018-09-04T08:20:28.963Z,51.19
2018-09-04T08:21:39.756Z,51.87
2018-09-04T08:22:49.926Z,51.68
2018-09-04T08:24:00.117Z,50.82
2018-09-04T08:25:10.268Z,50.16
2018-09-04T08:26:20.539Z,49.78
2018-09-04T08:27:30.695Z,49.71
2018-09-04T08:28:40.894Z,48.85
2018-09-04T08:29:51.030Z,48.55
2018-09-04T08:31:01.192Z,47.8
2018-09-04T08:32:11.330Z,46.65
2018-09-04T08:33:21.711Z,46.06
2018-09-04T08:34:31.689Z,45.5
2018-09-04T08:35:41.836Z,45.42
2018-09-04T08:36:51.958Z,45.23
2018-09-04T08:38:01.852Z,44.24
2018-09-04T08:39:11.732Z,43.98
2018-09-04T08:40:21.896Z,43.48
2018-09-04T08:41:32.025Z,43.02
2018-09-04T08:42:42.195Z,42.94
2018-09-04T08:43:52.413Z,42.35
2018-09-04T08:45:02.313Z,42.25
2018-09-04T08:46:12.800Z,41.37
2018-09-04T08:47:23.165Z,41.37
2018-09-04T08:48:33.200Z,41.56
2018-09-04T08:49:43.451Z,41.76
2018-09-04T08:50:53.815Z,41
2018-09-04T08:52:03.715Z,40.23
2018-09-04T08:53:13.937Z,40.23
2018-09-04T08:54:25.772Z,39.94
2018-09-04T08:55:36.052Z,40.13
2018-09-04T08:56:46.249Z,40.01
2018-09-04T08:57:56.444Z,39.64
2018-09-04T08:59:06.699Z,39.54
2018-09-04T09:00:16.892Z,38.98
2018-09-04T09:01:26.832Z,39.17
2018-09-04T09:02:37.181Z,38.68
2018-09-04T09:03:47.466Z,38.58
2018-09-04T09:04:58.003Z,38.88
2018-09-04T09:06:07.947Z,37.92
2018-09-04T09:07:18.333Z,38.01
2018-09-04T09:08:28.620Z,37.93
2018-09-04T09:09:38.770Z,37.26
2018-09-04T09:12:01.644Z,37.76
2018-09-04T09:13:15.320Z,37.24
2018-09-04T09:14:25.709Z,37.34
2018-09-04T09:15:35.855Z,35.87
2018-09-04T09:16:46.398Z,36.85
2018-09-04T09:17:57.921Z,37.13
2018-09-04T09:19:18.755Z,37.03
2018-09-04T09:20:33.152Z,37.15
2018-09-04T09:21:43.063Z,36.95
2018-09-04T09:22:53.366Z,36.87
2018-09-04T09:24:03.958Z,35.71
2018-09-04T09:25:14.146Z,36
2018-09-04T09:26:25.310Z,36
2018-09-04T09:27:35.239Z,35.61
2018-09-04T09:28:46.894Z,35.41
2018-09-04T09:29:57.052Z,35.33
2018-09-04T09:31:07.203Z,34.36
2018-09-04T09:32:20.395Z,33.97
2018-09-04T09:33:31.969Z,33.77
2018-09-04T09:34:42.209Z,33.67
2018-09-04T09:35:52.719Z,34.25
2018-09-04T09:38:21.650Z,35.03
2018-09-04T09:42:10.150Z,34.17
2018-09-04T09:44:36.637Z,33.39
2018-09-04T09:45:46.534Z,33.1
2018-09-04T09:46:58.127Z,33.67
2018-09-04T09:48:09.174Z,33.97
2018-09-04T09:49:19.430Z,33.86
2018-09-04T09:50:29.685Z,33.94
2018-09-04T09:51:39.997Z,33.84
2018-09-04T09:52:50.224Z,34.13
2018-09-04T09:54:01.980Z,33.75
2018-09-04T09:55:12.287Z,33.67
2018-09-04T09:56:27.783Z,33.79
2018-09-04T09:57:38.451Z,32.7
2018-09-04T09:58:48.855Z,33
2018-09-04T10:00:00.170Z,32.51
2018-09-04T10:01:10.576Z,33
2018-09-04T10:02:20.741Z,32.31
2018-09-04T10:04:58.774Z,32.69
2018-09-04T10:06:08.999Z,32.79
2018-09-04T10:07:19.172Z,33.67
2018-09-04T10:08:29.485Z,33.17
2018-09-04T10:09:39.755Z,33.36
2018-09-04T10:10:50.224Z,33.46
2018-09-04T10:12:00.425Z,33.26
2018-09-04T10:13:10.643Z,33.44
2018-09-04T10:14:20.836Z,33.46
2018-09-04T10:15:31.031Z,32.87
2018-09-04T10:16:41.374Z,32.87
2018-09-04T10:17:51.535Z,32.59
2018-09-04T10:19:01.700Z,32.28
2018-09-04T10:20:11.868Z,32.77
2018-09-04T10:21:22.212Z,32.46
2018-09-04T10:22:32.700Z,32.76
2018-09-04T10:23:42.878Z,33.03
2018-09-04T10:24:52.882Z,33.33
2018-09-04T10:26:03.365Z,33.59
2018-09-04T10:27:13.574Z,33.69
2018-09-04T10:28:23.764Z,33.97
2018-09-04T10:29:33.918Z,34.34
2018-09-04T10:30:43.692Z,34.72
2018-09-04T10:31:53.936Z,35
2018-09-04T10:33:04.082Z,35.57
2018-09-04T10:34:14.302Z,35.66
2018-09-04T10:35:24.492Z,35.57
2018-09-04T10:36:34.701Z,35.27
2018-09-04T10:37:44.674Z,35.47
2018-09-04T10:38:54.589Z,34.88
2018-09-04T10:40:04.965Z,35.1
2018-09-04T10:41:15.148Z,34.7
2018-09-04T10:42:25.417Z,34.7
2018-09-04T10:43:35.576Z,34.7
2018-09-04T10:44:45.465Z,34.8
2018-09-04T10:45:55.632Z,34.31
2018-09-04T10:47:05.649Z,33.34
2018-09-04T10:48:15.970Z,33.65
2018-09-04T10:49:26.158Z,33.36
2018-09-04T10:50:36.047Z,32.89
2018-09-04T10:51:46.432Z,32.31
2018-09-04T10:52:56.702Z,31.84
2018-09-04T10:54:06.965Z,31.26
2018-09-04T10:55:17.220Z,30.59
2018-09-04T10:56:27.737Z,29.8
2018-09-04T10:57:38.085Z,30.02
2018-09-04T10:58:48.226Z,28.44
2018-09-04T10:59:58.379Z,28.14
2018-09-04T11:01:08.842Z,27.74
2018-09-04T11:02:19.233Z,28.51
2018-09-04T11:03:29.694Z,28.69
2018-09-04T11:04:39.947Z,27.32
2018-09-04T11:05:50.399Z,27.92
2018-09-04T11:07:01.760Z,26.93
2018-09-04T11:08:11.932Z,27.05
2018-09-04T11:09:22.184Z,27.94
2018-09-04T11:10:32.844Z,27.95
2018-09-04T11:11:42.816Z,28.54
2018-09-04T11:14:07.680Z,28.54
2018-09-04T11:15:17.863Z,28.82
2018-09-04T11:16:28.123Z,28.92
2018-09-04T11:17:38.373Z,28.82
2018-09-04T11:18:48.242Z,28.91
2018-09-04T11:19:58.712Z,29.66
2018-09-04T11:21:08.953Z,30.04
2018-09-04T11:22:19.161Z,30.91
2018-09-04T11:23:30.508Z,31.09
2018-09-04T11:24:40.728Z,31.57
2018-09-04T11:25:51.781Z,32.23
2018-09-04T11:27:02.073Z,32.42
2018-09-04T11:28:12.349Z,32.7
2018-09-04T11:29:22.509Z,33.07
2018-09-04T11:30:32.796Z,33.64
2018-09-04T11:31:42.809Z,34.03
2018-09-04T11:32:52.746Z,34.21
2018-09-04T11:34:02.891Z,34.7
2018-09-04T11:35:13.094Z,35.07
2018-09-04T11:36:24.227Z,35.45
2018-09-04T11:37:34.463Z,35.35
2018-09-04T11:38:44.608Z,35.55
2018-09-04T11:39:54.604Z,35.72
2018-09-04T11:41:04.698Z,36.02
2018-09-04T11:42:14.867Z,36.21
2018-09-04T11:43:25.034Z,36.7
2018-09-04T11:44:34.939Z,36.99
2018-09-04T11:45:45.148Z,36.9
2018-09-04T11:46:55.676Z,36.99
2018-09-04T11:48:06.506Z,36.6
2018-09-04T11:49:16.725Z,36.52
2018-09-04T11:50:26.976Z,36.52
2018-09-04T11:51:36.870Z,36.72
2018-09-04T11:52:46.877Z,36.24
2018-09-04T11:53:57.085Z,35.85
2018-09-04T11:55:07.268Z,35.58
2018-09-04T11:56:17.577Z,35.28
2018-09-04T11:57:27.818Z,35.21
2018-09-04T11:58:38.106Z,34.83
2018-09-04T11:59:48.434Z,34.06
2018-09-04T12:00:58.648Z,33.5
2018-09-04T12:02:08.896Z,33.12
2018-09-04T12:03:19.559Z,32.53
2018-09-04T12:04:29.715Z,32.74
2018-09-04T12:05:39.063Z,32.56
2018-09-04T12:06:49.810Z,32.18
2018-09-04T12:08:00.005Z,31.71
2018-09-04T12:09:13.748Z,31.71
2018-09-04T12:10:26.148Z,31.32
2018-09-04T12:11:36.577Z,30.93
2018-09-04T12:12:47.091Z,30.91
2018-09-04T12:13:57.822Z,30.81
2018-09-04T12:15:08.030Z,30.7
2018-09-04T12:16:18.272Z,30.99
2018-09-04T12:17:28.507Z,31.57
2018-09-04T12:18:38.463Z,32.14
2018-09-04T12:19:48.373Z,32.73
2018-09-04T12:20:59.033Z,32.51
2018-09-04T12:22:10.292Z,32.71
2018-09-04T12:23:20.577Z,32.7
2018-09-04T12:24:30.475Z,33.18
2018-09-04T12:25:40.392Z,33.38
2018-09-04T12:26:50.621Z,33.28
2018-09-04T12:28:00.880Z,33.18
2018-09-04T12:29:10.796Z,33.28
2018-09-04T12:30:20.943Z,32.99
2018-09-04T12:31:30.592Z,32.7
2018-09-04T12:32:40.787Z,33.48
2018-09-04T12:33:52.063Z,33.26
2018-09-04T12:35:02.243Z,33.38
2018-09-04T12:36:12.485Z,32.79
2018-09-04T12:37:22.649Z,32.79
2018-09-04T12:38:33.093Z,32.79
2018-09-04T12:39:43.305Z,32.7
2018-09-04T12:40:52.953Z,32.51
2018-09-04T12:42:03.127Z,32.1
2018-09-04T12:43:12.673Z,32.4
2018-09-04T12:44:22.971Z,32.42
2018-09-04T12:45:33.775Z,32.32
2018-09-04T12:46:45.758Z,32.6
2018-09-04T12:47:57.168Z,32.42
2018-09-04T12:49:07.405Z,32.4
2018-09-04T12:51:36.832Z,32.6
2018-09-04T12:52:50.692Z,32.2
2018-09-04T12:54:03.299Z,32.01
2018-09-04T12:55:13.566Z,32.1
2018-09-04T12:56:23.493Z,32.1
2018-09-04T12:57:33.919Z,32.3
2018-09-04T13:00:00.033Z,31.91
2018-09-04T13:01:10.217Z,32.4
2018-09-04T13:02:20.269Z,32.4
2018-09-04T13:03:30.537Z,32.7
2018-09-04T13:04:40.763Z,32.68
2018-09-04T13:05:50.981Z,32.68
2018-09-04T13:07:00.951Z,32.56
2018-09-04T13:08:11.166Z,32.76
2018-09-04T13:09:21.599Z,32.66
2018-09-04T13:10:31.755Z,32.76
2018-09-04T13:11:42.028Z,32.65
2018-09-04T13:12:52.318Z,33.33
2018-09-04T13:14:03.195Z,33.23
2018-09-04T13:15:13.196Z,33.43
2018-09-04T13:16:23.593Z,32.84
2018-09-04T13:17:35.072Z,33.53
2018-09-04T13:18:45.473Z,33.9
2018-09-04T13:19:55.362Z,33.7
2018-09-04T13:21:05.534Z,33.89
2018-09-04T13:22:18.627Z,34.77
2018-09-04T13:23:29.022Z,34.55
2018-09-04T13:24:39.361Z,34.65
2018-09-04T13:25:49.597Z,34.84
2018-09-04T13:27:00.778Z,35.22
2018-09-04T13:28:11.002Z,35.22
2018-09-04T13:29:21.216Z,35.71
2018-09-04T13:30:33.472Z,35.9
2018-09-04T13:31:43.607Z,36.37
2018-09-04T13:32:53.489Z,36.37
2018-09-04T13:34:04.262Z,36.66
2018-09-04T13:35:14.309Z,36.74
2018-09-04T13:36:25.552Z,36.74
2018-09-04T13:38:49.942Z,36.94
2018-09-04T13:40:00.146Z,37.81
2018-09-04T13:41:10.348Z,37.7
2018-09-04T13:42:20.598Z,37.7
2018-09-04T13:43:30.768Z,37.5
2018-09-04T13:44:41.008Z,37.79
2018-09-04T13:45:51.152Z,37.7
2018-09-04T13:47:01.372Z,37.7
2018-09-04T13:48:12.894Z,37.6
2018-09-04T13:49:23.049Z,37.5
2018-09-04T13:50:34.202Z,37.41
2018-09-04T13:51:44.369Z,37.5
2018-09-04T13:52:54.585Z,37.58
2018-09-04T13:54:04.745Z,37.7
2018-09-04T13:55:14.968Z,37.7
2018-09-04T13:56:25.119Z,37.99
2018-09-04T13:57:35.293Z,37.5
2018-09-04T13:58:45.505Z,37.7
2018-09-04T13:59:55.707Z,37.7
2018-09-04T14:01:06.138Z,37.81
2018-09-04T14:02:16.396Z,37.71
2018-09-04T14:03:26.566Z,37.91
2018-09-04T14:04:39.347Z,37.52
2018-09-04T14:05:49.548Z,37.52
2018-09-04T14:06:59.956Z,37.52
2018-09-04T14:08:10.191Z,38.01
2018-09-04T14:09:20.505Z,37.43
2018-09-04T14:10:30.450Z,37.62
2018-09-04T14:11:40.393Z,37.43
2018-09-04T14:12:50.554Z,37.89
2018-09-04T14:14:00.403Z,37.89
2018-09-04T14:15:10.878Z,38.28
2018-09-04T14:16:21.057Z,37.89
2018-09-04T14:17:31.206Z,37.5
2018-09-04T14:18:41.366Z,37.87
2018-09-04T14:19:51.757Z,38.17
2018-09-04T14:21:01.863Z,37.77
2018-09-04T14:22:12.396Z,38.17
2018-09-04T14:23:22.619Z,38.36
2018-09-04T14:24:32.803Z,38.75
2018-09-04T14:25:42.826Z,38.75
2018-09-04T14:26:52.982Z,38.36
2018-09-04T14:28:03.194Z,38.65
2018-09-04T14:29:53.163Z,38.17
